Terminal Aerodrome Forecast
Issued by NWS

Home | Current Version | Previous Version | Text Only | Print | Product List | Glossary On
Versions: 1 2 3 4 5 6 7 8 9 10 11 12 13 14 15 16 17 18 19 20 21 22 23
000
FTAK31 PANC 261734
TAFATK
TAF
PATK 261734Z 2618/2718 VRB03KT 6SM BR OVC025
      TEMPO 2618/2621 3SM BR BKN012
     FM262200 VRB03KT P6SM SCT025 BKN040
     FM271000 VRB03KT P6SM BKN015=

USA.gov is the U.S. government's official web portal to all federal, state and local government web resources and services.